sensor_id;sensor_type;location;lat;lon;timestamp;P1;durP1;ratioP1;P2;durP2;ratioP2
69414;SDS011;56608;43.530;-5.652;2023-06-14T00:00:47;5.82;;;5.10;;
69414;SDS011;56608;43.530;-5.652;2023-06-14T00:01:49;5.22;;;4.72;;
69414;SDS011;56608;43.530;-5.652;2023-06-14T00:02:51;7.12;;;5.12;;
69414;SDS011;56608;43.530;-5.652;2023-06-14T00:03:52;5.87;;;5.00;;
69414;SDS011;56608;43.530;-5.652;2023-06-14T00:04:55;7.00;;;5.10;;
69414;SDS011;56608;43.530;-5.652;2023-06-14T00:05:56;5.40;;;4.90;;
69414;SDS011;56608;43.530;-5.652;2023-06-14T00:06:57;6.03;;;5.12;;
69414;SDS011;56608;43.530;-5.652;2023-06-14T00:07:59;5.68;;;5.18;;
69414;SDS011;56608;43.530;-5.652;2023-06-14T00:09:01;5.28;;;4.60;;
69414;SDS011;56608;43.530;-5.652;2023-06-14T00:10:03;5.70;;;5.15;;
69414;SDS011;56608;43.530;-5.652;2023-06-14T00:11:05;5.50;;;5.00;;
69414;SDS011;56608;43.530;-5.652;2023-06-14T00:13:08;5.20;;;4.70;;
69414;SDS011;56608;43.530;-5.652;2023-06-14T00:14:10;5.75;;;5.12;;
69414;SDS011;56608;43.530;-5.652;2023-06-14T00:15:12;5.60;;;5.10;;
69414;SDS011;56608;43.530;-5.652;2023-06-14T00:16:12;5.20;;;4.55;;
69414;SDS011;56608;43.530;-5.652;2023-06-14T00:17:14;6.25;;;5.20;;
69414;SDS011;56608;43.530;-5.652;2023-06-14T00:18:17;5.68;;;4.95;;
69414;SDS011;56608;43.530;-5.652;2023-06-14T00:19:18;5.73;;;4.70;;
69414;SDS011;56608;43.530;-5.652;2023-06-14T00:20:20;5.35;;;4.85;;
69414;SDS011;56608;43.530;-5.652;2023-06-14T00:22:22;5.40;;;4.93;;
69414;SDS011;56608;43.530;-5.652;2023-06-14T00:23:29;6.12;;;5.50;;
69414;SDS011;56608;43.530;-5.652;2023-06-14T00:24:31;5.30;;;4.90;;
69414;SDS011;56608;43.530;-5.652;2023-06-14T00:25:32;5.10;;;4.60;;
69414;SDS011;56608;43.530;-5.652;2023-06-14T00:26:33;5.15;;;4.45;;
69414;SDS011;56608;43.530;-5.652;2023-06-14T00:27:35;4.90;;;4.50;;
69414;SDS011;56608;43.530;-5.652;2023-06-14T00:28:36;4.65;;;4.25;;
69414;SDS011;56608;43.530;-5.652;2023-06-14T00:29:38;5.07;;;4.57;;
69414;SDS011;56608;43.530;-5.652;2023-06-14T00:30:39;5.75;;;4.97;;
69414;SDS011;56608;43.530;-5.652;2023-06-14T00:31:40;5.80;;;5.30;;
69414;SDS011;56608;43.530;-5.652;2023-06-14T00:32:42;6.30;;;5.22;;
69414;SDS011;56608;43.530;-5.652;2023-06-14T00:33:44;5.68;;;5.10;;
69414;SDS011;56608;43.530;-5.652;2023-06-14T00:34:46;6.40;;;5.05;;
69414;SDS011;56608;43.530;-5.652;2023-06-14T00:35:47;5.62;;;5.03;;
69414;SDS011;56608;43.530;-5.652;2023-06-14T00:37:50;5.03;;;4.53;;
69414;SDS011;56608;43.530;-5.652;2023-06-14T00:38:50;5.40;;;4.75;;
69414;SDS011;56608;43.530;-5.652;2023-06-14T00:39:52;5.32;;;4.82;;
69414;SDS011;56608;43.530;-5.652;2023-06-14T00:40:53;7.65;;;5.72;;
69414;SDS011;56608;43.530;-5.652;2023-06-14T00:41:55;5.62;;;5.12;;
69414;SDS011;56608;43.530;-5.652;2023-06-14T00:42:56;6.12;;;4.97;;
69414;SDS011;56608;43.530;-5.652;2023-06-14T00:43:58;4.97;;;4.53;;
69414;SDS011;56608;43.530;-5.652;2023-06-14T00:45:00;5.65;;;4.95;;
69414;SDS011;56608;43.530;-5.652;2023-06-14T00:46:02;5.75;;;4.68;;
69414;SDS011;56608;43.530;-5.652;2023-06-14T00:47:02;5.35;;;4.85;;
69414;SDS011;56608;43.530;-5.652;2023-06-14T00:48:04;5.45;;;4.90;;
69414;SDS011;56608;43.530;-5.652;2023-06-14T00:49:08;6.05;;;5.10;;
69414;SDS011;56608;43.530;-5.652;2023-06-14T00:50:10;5.35;;;4.68;;
69414;SDS011;56608;43.530;-5.652;2023-06-14T00:51:14;5.85;;;4.80;;
69414;SDS011;56608;43.530;-5.652;2023-06-14T00:52:16;5.93;;;5.07;;
69414;SDS011;56608;43.530;-5.652;2023-06-14T00:53:18;5.43;;;4.80;;
69414;SDS011;56608;43.530;-5.652;2023-06-14T00:54:21;4.97;;;4.47;;
69414;SDS011;56608;43.530;-5.652;2023-06-14T00:55:22;5.00;;;4.50;;
69414;SDS011;56608;43.530;-5.652;2023-06-14T00:57:25;4.55;;;4.15;;
69414;SDS011;56608;43.530;-5.652;2023-06-14T00:58:27;5.78;;;4.90;;
69414;SDS011;56608;43.530;-5.652;2023-06-14T00:59:29;5.12;;;4.62;;
69414;SDS011;56608;43.530;-5.652;2023-06-14T01:01:32;6.07;;;4.43;;
69414;SDS011;56608;43.530;-5.652;2023-06-14T01:02:35;5.85;;;4.70;;
69414;SDS011;56608;43.530;-5.652;2023-06-14T01:03:38;5.53;;;4.93;;
69414;SDS011;56608;43.530;-5.652;2023-06-14T01:04:41;7.22;;;5.22;;
69414;SDS011;56608;43.530;-5.652;2023-06-14T01:05:46;4.87;;;4.35;;
69414;SDS011;56608;43.530;-5.652;2023-06-14T01:07:00;5.68;;;4.45;;
69414;SDS011;56608;43.530;-5.652;2023-06-14T01:08:19;5.35;;;4.90;;
69414;SDS011;56608;43.530;-5.652;2023-06-14T01:09:35;5.30;;;4.28;;
69414;SDS011;56608;43.530;-5.652;2023-06-14T01:10:53;5.20;;;4.50;;
69414;SDS011;56608;43.530;-5.652;2023-06-14T01:12:03;5.15;;;4.40;;
69414;SDS011;56608;43.530;-5.652;2023-06-14T01:13:20;5.00;;;4.60;;
69414;SDS011;56608;43.530;-5.652;2023-06-14T01:14:23;4.93;;;4.50;;
69414;SDS011;56608;43.530;-5.652;2023-06-14T01:15:26;5.43;;;4.75;;
69414;SDS011;56608;43.530;-5.652;2023-06-14T01:16:30;5.05;;;4.55;;
69414;SDS011;56608;43.530;-5.652;2023-06-14T01:17:33;4.60;;;4.05;;
69414;SDS011;56608;43.530;-5.652;2023-06-14T01:18:35;5.15;;;4.60;;
69414;SDS011;56608;43.530;-5.652;2023-06-14T01:19:37;4.95;;;4.40;;
69414;SDS011;56608;43.530;-5.652;2023-06-14T01:20:37;5.45;;;4.25;;
69414;SDS011;56608;43.530;-5.652;2023-06-14T01:21:39;5.30;;;4.78;;
69414;SDS011;56608;43.530;-5.652;2023-06-14T01:22:52;4.20;;;3.80;;
69414;SDS011;56608;43.530;-5.652;2023-06-14T01:23:54;5.15;;;4.40;;
69414;SDS011;56608;43.530;-5.652;2023-06-14T01:24:56;5.12;;;4.12;;
69414;SDS011;56608;43.530;-5.652;2023-06-14T01:25:59;4.75;;;4.35;;
69414;SDS011;56608;43.530;-5.652;2023-06-14T01:27:04;4.37;;;3.97;;
69414;SDS011;56608;43.530;-5.652;2023-06-14T01:28:06;5.43;;;4.70;;
69414;SDS011;56608;43.530;-5.652;2023-06-14T01:29:12;4.85;;;4.35;;
69414;SDS011;56608;43.530;-5.652;2023-06-14T01:30:18;4.62;;;4.20;;
69414;SDS011;56608;43.530;-5.652;2023-06-14T01:31:22;5.12;;;4.12;;
69414;SDS011;56608;43.530;-5.652;2023-06-14T01:32:24;4.87;;;4.37;;
69414;SDS011;56608;43.530;-5.652;2023-06-14T01:33:28;5.97;;;4.62;;
69414;SDS011;56608;43.530;-5.652;2023-06-14T01:34:30;5.03;;;4.53;;
69414;SDS011;56608;43.530;-5.652;2023-06-14T01:35:32;4.78;;;4.10;;
69414;SDS011;56608;43.530;-5.652;2023-06-14T01:36:33;4.80;;;3.75;;
69414;SDS011;56608;43.530;-5.652;2023-06-14T01:37:38;4.90;;;4.40;;
69414;SDS011;56608;43.530;-5.652;2023-06-14T01:38:40;4.72;;;4.32;;
69414;SDS011;56608;43.530;-5.652;2023-06-14T01:39:44;4.78;;;4.25;;
69414;SDS011;56608;43.530;-5.652;2023-06-14T01:40:46;4.60;;;4.12;;
69414;SDS011;56608;43.530;-5.652;2023-06-14T01:41:49;4.22;;;3.83;;
69414;SDS011;56608;43.530;-5.652;2023-06-14T01:42:51;4.80;;;4.37;;
69414;SDS011;56608;43.530;-5.652;2023-06-14T01:44:54;4.85;;;4.37;;
69414;SDS011;56608;43.530;-5.652;2023-06-14T01:45:56;4.50;;;4.07;;
69414;SDS011;56608;43.530;-5.652;2023-06-14T01:46:58;5.07;;;4.00;;
69414;SDS011;56608;43.530;-5.652;2023-06-14T01:48:00;5.43;;;4.00;;
69414;SDS011;56608;43.530;-5.652;2023-06-14T01:50:03;4.20;;;3.80;;
69414;SDS011;56608;43.530;-5.652;2023-06-14T01:51:04;4.50;;;4.10;;
69414;SDS011;56608;43.530;-5.652;2023-06-14T01:52:06;4.40;;;4.00;;
69414;SDS011;56608;43.530;-5.652;2023-06-14T01:53:10;4.70;;;4.10;;
69414;SDS011;56608;43.530;-5.652;2023-06-14T01:54:12;5.28;;;4.22;;
69414;SDS011;56608;43.530;-5.652;2023-06-14T01:55:13;4.57;;;4.05;;
69414;SDS011;56608;43.530;-5.652;2023-06-14T01:56:15;4.45;;;4.05;;
69414;SDS011;56608;43.530;-5.652;2023-06-14T01:57:17;4.07;;;3.67;;
69414;SDS011;56608;43.530;-5.652;2023-06-14T01:58:18;4.43;;;3.95;;
69414;SDS011;56608;43.530;-5.652;2023-06-14T01:59:19;4.30;;;3.90;;
69414;SDS011;56608;43.530;-5.652;2023-06-14T02:00:21;4.03;;;3.62;;
69414;SDS011;56608;43.530;-5.652;2023-06-14T02:01:23;4.65;;;3.97;;
69414;SDS011;56608;43.530;-5.652;2023-06-14T02:02:24;4.50;;;4.10;;
69414;SDS011;56608;43.530;-5.652;2023-06-14T02:03:25;4.10;;;3.60;;
69414;SDS011;56608;43.530;-5.652;2023-06-14T02:04:27;4.00;;;3.70;;
69414;SDS011;56608;43.530;-5.652;2023-06-14T02:05:27;4.30;;;3.90;;
69414;SDS011;56608;43.530;-5.652;2023-06-14T02:06:29;4.55;;;3.87;;
69414;SDS011;56608;43.530;-5.652;2023-06-14T02:07:31;4.75;;;4.20;;
69414;SDS011;56608;43.530;-5.652;2023-06-14T02:08:32;3.92;;;3.62;;
69414;SDS011;56608;43.530;-5.652;2023-06-14T02:09:34;4.35;;;3.95;;
69414;SDS011;56608;43.530;-5.652;2023-06-14T02:10:38;3.95;;;3.65;;
69414;SDS011;56608;43.530;-5.652;2023-06-14T02:11:40;4.70;;;3.90;;
69414;SDS011;56608;43.530;-5.652;2023-06-14T02:12:41;4.20;;;3.80;;
69414;SDS011;56608;43.530;-5.652;2023-06-14T02:13:41;6.30;;;3.60;;
69414;SDS011;56608;43.530;-5.652;2023-06-14T02:14:43;5.00;;;4.18;;
69414;SDS011;56608;43.530;-5.652;2023-06-14T02:16:46;4.10;;;3.70;;
69414;SDS011;56608;43.530;-5.652;2023-06-14T02:17:50;4.10;;;3.70;;
69414;SDS011;56608;43.530;-5.652;2023-06-14T02:19:52;4.30;;;3.90;;
69414;SDS011;56608;43.530;-5.652;2023-06-14T02:20:54;4.80;;;4.00;;
69414;SDS011;56608;43.530;-5.652;2023-06-14T02:22:57;4.20;;;3.80;;
69414;SDS011;56608;43.530;-5.652;2023-06-14T02:24:59;4.12;;;3.72;;
69414;SDS011;56608;43.530;-5.652;2023-06-14T02:26:01;3.95;;;3.47;;
69414;SDS011;56608;43.530;-5.652;2023-06-14T02:27:04;4.32;;;3.92;;
69414;SDS011;56608;43.530;-5.652;2023-06-14T02:28:06;4.30;;;3.90;;
69414;SDS011;56608;43.530;-5.652;2023-06-14T02:29:06;4.15;;;3.75;;
69414;SDS011;56608;43.530;-5.652;2023-06-14T02:30:10;4.40;;;3.92;;
69414;SDS011;56608;43.530;-5.652;2023-06-14T02:31:12;4.20;;;3.80;;
69414;SDS011;56608;43.530;-5.652;2023-06-14T02:32:13;4.57;;;3.60;;
69414;SDS011;56608;43.530;-5.652;2023-06-14T02:33:15;4.50;;;3.90;;
69414;SDS011;56608;43.530;-5.652;2023-06-14T02:34:16;4.65;;;3.80;;
69414;SDS011;56608;43.530;-5.652;2023-06-14T02:35:18;4.62;;;3.95;;
69414;SDS011;56608;43.530;-5.652;2023-06-14T02:36:21;4.37;;;3.97;;
69414;SDS011;56608;43.530;-5.652;2023-06-14T02:37:22;4.45;;;3.83;;
69414;SDS011;56608;43.530;-5.652;2023-06-14T02:38:24;3.80;;;3.50;;
69414;SDS011;56608;43.530;-5.652;2023-06-14T02:39:26;4.18;;;3.47;;
69414;SDS011;56608;43.530;-5.652;2023-06-14T02:40:27;4.30;;;3.72;;
69414;SDS011;56608;43.530;-5.652;2023-06-14T02:41:29;3.70;;;3.40;;
69414;SDS011;56608;43.530;-5.652;2023-06-14T02:42:29;4.15;;;3.70;;
69414;SDS011;56608;43.530;-5.652;2023-06-14T02:43:31;3.87;;;3.53;;
69414;SDS011;56608;43.530;-5.652;2023-06-14T02:44:32;4.35;;;3.67;;
69414;SDS011;56608;43.530;-5.652;2023-06-14T02:45:34;3.80;;;3.40;;
69414;SDS011;56608;43.530;-5.652;2023-06-14T02:46:38;3.97;;;3.45;;
69414;SDS011;56608;43.530;-5.652;2023-06-14T02:47:39;4.10;;;3.72;;
69414;SDS011;56608;43.530;-5.652;2023-06-14T02:48:41;3.70;;;3.40;;
69414;SDS011;56608;43.530;-5.652;2023-06-14T02:49:42;3.78;;;3.40;;
69414;SDS011;56608;43.530;-5.652;2023-06-14T02:50:43;3.90;;;3.50;;
69414;SDS011;56608;43.530;-5.652;2023-06-14T02:52:45;3.55;;;3.25;;
69414;SDS011;56608;43.530;-5.652;2023-06-14T02:53:47;4.47;;;3.40;;
69414;SDS011;56608;43.530;-5.652;2023-06-14T02:54:48;4.20;;;3.80;;
69414;SDS011;56608;43.530;-5.652;2023-06-14T02:55:50;4.25;;;3.47;;
69414;SDS011;56608;43.530;-5.652;2023-06-14T02:56:51;3.75;;;3.30;;
69414;SDS011;56608;43.530;-5.652;2023-06-14T02:57:51;4.45;;;3.40;;
69414;SDS011;56608;43.530;-5.652;2023-06-14T02:58:54;3.50;;;3.20;;
69414;SDS011;56608;43.530;-5.652;2023-06-14T02:59:55;4.50;;;3.22;;
69414;SDS011;56608;43.530;-5.652;2023-06-14T03:00:57;4.03;;;3.58;;
69414;SDS011;56608;43.530;-5.652;2023-06-14T03:01:58;5.10;;;3.50;;
69414;SDS011;56608;43.530;-5.652;2023-06-14T03:02:59;4.10;;;3.70;;
69414;SDS011;56608;43.530;-5.652;2023-06-14T03:04:02;3.60;;;3.20;;
69414;SDS011;56608;43.530;-5.652;2023-06-14T03:05:04;3.83;;;3.33;;
69414;SDS011;56608;43.530;-5.652;2023-06-14T03:06:08;3.70;;;3.40;;
69414;SDS011;56608;43.530;-5.652;2023-06-14T03:07:10;3.80;;;3.50;;
69414;SDS011;56608;43.530;-5.652;2023-06-14T03:09:17;3.65;;;3.03;;
69414;SDS011;56608;43.530;-5.652;2023-06-14T03:10:20;3.75;;;3.35;;
69414;SDS011;56608;43.530;-5.652;2023-06-14T03:11:23;4.28;;;3.47;;
69414;SDS011;56608;43.530;-5.652;2023-06-14T03:12:25;3.53;;;3.22;;
69414;SDS011;56608;43.530;-5.652;2023-06-14T03:13:27;3.70;;;3.40;;
69414;SDS011;56608;43.530;-5.652;2023-06-14T03:14:33;4.72;;;3.53;;
69414;SDS011;56608;43.530;-5.652;2023-06-14T03:15:35;4.03;;;3.62;;
69414;SDS011;56608;43.530;-5.652;2023-06-14T03:16:37;3.95;;;3.53;;
69414;SDS011;56608;43.530;-5.652;2023-06-14T03:17:38;3.50;;;3.20;;
69414;SDS011;56608;43.530;-5.652;2023-06-14T03:18:40;4.70;;;3.40;;
69414;SDS011;56608;43.530;-5.652;2023-06-14T03:19:41;4.07;;;3.70;;
69414;SDS011;56608;43.530;-5.652;2023-06-14T03:20:43;3.92;;;3.30;;
69414;SDS011;56608;43.530;-5.652;2023-06-14T03:21:46;3.20;;;2.90;;
69414;SDS011;56608;43.530;-5.652;2023-06-14T03:22:48;3.60;;;3.30;;
69414;SDS011;56608;43.530;-5.652;2023-06-14T03:23:49;3.47;;;3.05;;
69414;SDS011;56608;43.530;-5.652;2023-06-14T03:26:53;4.55;;;3.25;;
69414;SDS011;56608;43.530;-5.652;2023-06-14T03:27:55;3.47;;;3.17;;
69414;SDS011;56608;43.530;-5.652;2023-06-14T03:28:57;3.45;;;3.15;;
69414;SDS011;56608;43.530;-5.652;2023-06-14T03:29:58;4.35;;;3.05;;
69414;SDS011;56608;43.530;-5.652;2023-06-14T03:31:00;3.72;;;3.17;;
69414;SDS011;56608;43.530;-5.652;2023-06-14T03:32:03;3.80;;;3.40;;
69414;SDS011;56608;43.530;-5.652;2023-06-14T03:33:05;4.12;;;3.05;;
69414;SDS011;56608;43.530;-5.652;2023-06-14T03:34:07;3.65;;;3.33;;
69414;SDS011;56608;43.530;-5.652;2023-06-14T03:35:07;4.35;;;3.90;;
69414;SDS011;56608;43.530;-5.652;2023-06-14T03:36:09;3.33;;;2.85;;
69414;SDS011;56608;43.530;-5.652;2023-06-14T03:37:11;3.12;;;2.92;;
69414;SDS011;56608;43.530;-5.652;2023-06-14T03:38:13;3.97;;;3.45;;
69414;SDS011;56608;43.530;-5.652;2023-06-14T03:39:14;3.60;;;3.10;;
69414;SDS011;56608;43.530;-5.652;2023-06-14T03:41:17;3.35;;;3.05;;
69414;SDS011;56608;43.530;-5.652;2023-06-14T03:42:18;3.55;;;3.25;;
69414;SDS011;56608;43.530;-5.652;2023-06-14T03:43:20;5.05;;;3.35;;
69414;SDS011;56608;43.530;-5.652;2023-06-14T03:44:21;4.05;;;3.28;;
69414;SDS011;56608;43.530;-5.652;2023-06-14T03:45:22;4.82;;;3.42;;
69414;SDS011;56608;43.530;-5.652;2023-06-14T03:46:24;3.47;;;3.17;;
69414;SDS011;56608;43.530;-5.652;2023-06-14T03:47:25;3.67;;;3.03;;
69414;SDS011;56608;43.530;-5.652;2023-06-14T03:48:28;3.95;;;3.33;;
69414;SDS011;56608;43.530;-5.652;2023-06-14T03:49:29;3.35;;;3.08;;
69414;SDS011;56608;43.530;-5.652;2023-06-14T03:51:33;4.05;;;3.40;;
69414;SDS011;56608;43.530;-5.652;2023-06-14T03:52:36;3.50;;;3.15;;
69414;SDS011;56608;43.530;-5.652;2023-06-14T03:53:36;5.35;;;3.65;;
69414;SDS011;56608;43.530;-5.652;2023-06-14T03:54:38;3.55;;;3.25;;
69414;SDS011;56608;43.530;-5.652;2023-06-14T03:55:39;3.03;;;2.77;;
69414;SDS011;56608;43.530;-5.652;2023-06-14T03:56:41;3.40;;;3.10;;
69414;SDS011;56608;43.530;-5.652;2023-06-14T03:57:42;3.30;;;3.00;;
69414;SDS011;56608;43.530;-5.652;2023-06-14T03:58:44;3.17;;;2.90;;
69414;SDS011;56608;43.530;-5.652;2023-06-14T03:59:45;3.92;;;3.22;;
69414;SDS011;56608;43.530;-5.652;2023-06-14T04:00:47;3.37;;;2.80;;
69414;SDS011;56608;43.530;-5.652;2023-06-14T04:01:48;4.30;;;3.40;;
69414;SDS011;56608;43.530;-5.652;2023-06-14T04:02:50;3.40;;;3.10;;
69414;SDS011;56608;43.530;-5.652;2023-06-14T04:03:51;3.62;;;3.00;;
69414;SDS011;56608;43.530;-5.652;2023-06-14T04:04:53;3.72;;;3.30;;
69414;SDS011;56608;43.530;-5.652;2023-06-14T04:05:55;3.30;;;3.00;;
69414;SDS011;56608;43.530;-5.652;2023-06-14T04:06:57;3.08;;;2.78;;
69414;SDS011;56608;43.530;-5.652;2023-06-14T04:07:59;4.05;;;3.17;;
69414;SDS011;56608;43.530;-5.652;2023-06-14T04:09:01;3.12;;;2.83;;
69414;SDS011;56608;43.530;-5.652;2023-06-14T04:10:03;3.47;;;3.17;;
69414;SDS011;56608;43.530;-5.652;2023-06-14T04:11:05;3.20;;;2.95;;
69414;SDS011;56608;43.530;-5.652;2023-06-14T04:12:06;3.87;;;3.00;;
69414;SDS011;56608;43.530;-5.652;2023-06-14T04:13:09;3.22;;;2.92;;
69414;SDS011;56608;43.530;-5.652;2023-06-14T04:14:14;3.45;;;3.08;;
69414;SDS011;56608;43.530;-5.652;2023-06-14T04:15:15;3.40;;;3.10;;
69414;SDS011;56608;43.530;-5.652;2023-06-14T04:16:16;3.37;;;3.08;;
69414;SDS011;56608;43.530;-5.652;2023-06-14T04:17:18;3.12;;;2.83;;
69414;SDS011;56608;43.530;-5.652;2023-06-14T04:18:19;4.00;;;2.85;;
69414;SDS011;56608;43.530;-5.652;2023-06-14T04:19:21;4.18;;;3.15;;
69414;SDS011;56608;43.530;-5.652;2023-06-14T04:20:23;3.05;;;2.75;;
69414;SDS011;56608;43.530;-5.652;2023-06-14T04:21:27;3.20;;;2.90;;
69414;SDS011;56608;43.530;-5.652;2023-06-14T04:22:29;3.35;;;3.00;;
69414;SDS011;56608;43.530;-5.652;2023-06-14T04:23:31;3.33;;;3.00;;
69414;SDS011;56608;43.530;-5.652;2023-06-14T04:24:33;3.47;;;3.08;;
69414;SDS011;56608;43.530;-5.652;2023-06-14T04:25:35;3.28;;;2.97;;
69414;SDS011;56608;43.530;-5.652;2023-06-14T04:26:36;2.97;;;2.67;;
69414;SDS011;56608;43.530;-5.652;2023-06-14T04:27:38;3.97;;;3.20;;
69414;SDS011;56608;43.530;-5.652;2023-06-14T04:28:39;3.33;;;3.00;;
69414;SDS011;56608;43.530;-5.652;2023-06-14T04:29:41;3.90;;;3.12;;
69414;SDS011;56608;43.530;-5.652;2023-06-14T04:30:45;4.25;;;2.97;;
69414;SDS011;56608;43.530;-5.652;2023-06-14T04:31:48;3.65;;;3.00;;
69414;SDS011;56608;43.530;-5.652;2023-06-14T04:32:50;3.08;;;2.72;;
69414;SDS011;56608;43.530;-5.652;2023-06-14T04:33:55;3.90;;;3.00;;
69414;SDS011;56608;43.530;-5.652;2023-06-14T04:34:57;5.18;;;3.20;;
69414;SDS011;56608;43.530;-5.652;2023-06-14T04:36:00;3.03;;;2.72;;
69414;SDS011;56608;43.530;-5.652;2023-06-14T04:37:01;3.30;;;3.00;;
69414;SDS011;56608;43.530;-5.652;2023-06-14T04:38:03;3.10;;;2.80;;
69414;SDS011;56608;43.530;-5.652;2023-06-14T04:39:10;3.42;;;2.97;;
69414;SDS011;56608;43.530;-5.652;2023-06-14T04:40:14;4.37;;;2.92;;
69414;SDS011;56608;43.530;-5.652;2023-06-14T04:41:15;3.20;;;2.90;;
69414;SDS011;56608;43.530;-5.652;2023-06-14T04:42:17;4.15;;;2.70;;
69414;SDS011;56608;43.530;-5.652;2023-06-14T04:43:21;3.08;;;2.78;;
69414;SDS011;56608;43.530;-5.652;2023-06-14T04:44:27;4.10;;;2.92;;
69414;SDS011;56608;43.530;-5.652;2023-06-14T04:45:32;3.25;;;2.90;;
69414;SDS011;56608;43.530;-5.652;2023-06-14T04:46:33;4.35;;;3.08;;
69414;SDS011;56608;43.530;-5.652;2023-06-14T04:47:47;3.70;;;3.33;;
69414;SDS011;56608;43.530;-5.652;2023-06-14T04:48:48;3.22;;;2.92;;
69414;SDS011;56608;43.530;-5.652;2023-06-14T04:49:51;5.03;;;3.05;;
69414;SDS011;56608;43.530;-5.652;2023-06-14T04:50:53;3.87;;;3.40;;
69414;SDS011;56608;43.530;-5.652;2023-06-14T04:51:56;3.12;;;2.83;;
69414;SDS011;56608;43.530;-5.652;2023-06-14T04:53:02;3.17;;;2.83;;
69414;SDS011;56608;43.530;-5.652;2023-06-14T04:54:04;3.20;;;2.90;;
69414;SDS011;56608;43.530;-5.652;2023-06-14T04:55:05;3.78;;;3.22;;
69414;SDS011;56608;43.530;-5.652;2023-06-14T04:56:07;3.25;;;2.70;;
69414;SDS011;56608;43.530;-5.652;2023-06-14T04:57:09;3.92;;;3.03;;
69414;SDS011;56608;43.530;-5.652;2023-06-14T04:58:15;3.10;;;2.80;;
69414;SDS011;56608;43.530;-5.652;2023-06-14T04:59:17;4.22;;;3.05;;
69414;SDS011;56608;43.530;-5.652;2023-06-14T05:00:19;3.30;;;3.00;;
69414;SDS011;56608;43.530;-5.652;2023-06-14T05:01:24;2.90;;;2.60;;
69414;SDS011;56608;43.530;-5.652;2023-06-14T05:03:25;2.80;;;2.60;;
69414;SDS011;56608;43.530;-5.652;2023-06-14T05:04:28;3.00;;;2.70;;
69414;SDS011;56608;43.530;-5.652;2023-06-14T05:05:29;3.17;;;2.78;;
69414;SDS011;56608;43.530;-5.652;2023-06-14T05:06:30;3.70;;;3.15;;
69414;SDS011;56608;43.530;-5.652;2023-06-14T05:07:32;3.33;;;2.92;;
69414;SDS011;56608;43.530;-5.652;2023-06-14T05:08:34;3.15;;;2.85;;
69414;SDS011;56608;43.530;-5.652;2023-06-14T05:09:36;3.40;;;2.80;;
69414;SDS011;56608;43.530;-5.652;2023-06-14T05:11:38;3.33;;;2.60;;
69414;SDS011;56608;43.530;-5.652;2023-06-14T05:12:40;3.50;;;2.90;;
69414;SDS011;56608;43.530;-5.652;2023-06-14T05:13:44;3.37;;;2.65;;
69414;SDS011;56608;43.530;-5.652;2023-06-14T05:14:46;4.15;;;2.75;;
69414;SDS011;56608;43.530;-5.652;2023-06-14T05:15:47;3.30;;;3.00;;
69414;SDS011;56608;43.530;-5.652;2023-06-14T05:16:49;3.10;;;2.78;;
69414;SDS011;56608;43.530;-5.652;2023-06-14T05:17:51;3.83;;;2.85;;
69414;SDS011;56608;43.530;-5.652;2023-06-14T05:18:56;2.90;;;2.55;;
69414;SDS011;56608;43.530;-5.652;2023-06-14T05:19:56;3.95;;;2.70;;
69414;SDS011;56608;43.530;-5.652;2023-06-14T05:20:58;3.75;;;2.80;;
69414;SDS011;56608;43.530;-5.652;2023-06-14T05:22:00;2.85;;;2.65;;
69414;SDS011;56608;43.530;-5.652;2023-06-14T05:23:00;2.65;;;2.40;;
69414;SDS011;56608;43.530;-5.652;2023-06-14T05:24:02;3.55;;;2.87;;
69414;SDS011;56608;43.530;-5.652;2023-06-14T05:25:04;2.80;;;2.50;;
69414;SDS011;56608;43.530;-5.652;2023-06-14T05:26:06;3.85;;;2.85;;
69414;SDS011;56608;43.530;-5.652;2023-06-14T05:27:07;4.55;;;2.60;;
69414;SDS011;56608;43.530;-5.652;2023-06-14T05:28:09;3.10;;;2.80;;
69414;SDS011;56608;43.530;-5.652;2023-06-14T05:29:10;2.90;;;2.70;;
69414;SDS011;56608;43.530;-5.652;2023-06-14T05:30:12;3.75;;;2.97;;
69414;SDS011;56608;43.530;-5.652;2023-06-14T05:31:14;3.20;;;2.90;;
69414;SDS011;56608;43.530;-5.652;2023-06-14T05:32:16;2.90;;;2.62;;
69414;SDS011;56608;43.530;-5.652;2023-06-14T05:33:17;2.58;;;2.37;;
69414;SDS011;56608;43.530;-5.652;2023-06-14T05:34:18;3.40;;;2.78;;
69414;SDS011;56608;43.530;-5.652;2023-06-14T05:36:23;2.80;;;2.60;;
69414;SDS011;56608;43.530;-5.652;2023-06-14T05:37:24;3.40;;;2.53;;
69414;SDS011;56608;43.530;-5.652;2023-06-14T05:38:25;3.20;;;2.90;;
69414;SDS011;56608;43.530;-5.652;2023-06-14T05:39:27;3.17;;;2.80;;
69414;SDS011;56608;43.530;-5.652;2023-06-14T05:40:28;3.47;;;2.80;;
69414;SDS011;56608;43.530;-5.652;2023-06-14T05:41:30;2.67;;;2.47;;
69414;SDS011;56608;43.530;-5.652;2023-06-14T05:42:31;2.60;;;2.40;;
69414;SDS011;56608;43.530;-5.652;2023-06-14T05:43:33;4.10;;;2.90;;
69414;SDS011;56608;43.530;-5.652;2023-06-14T05:44:34;4.20;;;3.10;;
69414;SDS011;56608;43.530;-5.652;2023-06-14T05:45:36;2.72;;;2.40;;
69414;SDS011;56608;43.530;-5.652;2023-06-14T05:46:37;2.95;;;2.70;;
69414;SDS011;56608;43.530;-5.652;2023-06-14T05:47:41;4.10;;;2.97;;
69414;SDS011;56608;43.530;-5.652;2023-06-14T05:49:43;3.10;;;2.67;;
69414;SDS011;56608;43.530;-5.652;2023-06-14T05:50:45;3.03;;;2.72;;
69414;SDS011;56608;43.530;-5.652;2023-06-14T05:51:46;2.60;;;2.40;;
69414;SDS011;56608;43.530;-5.652;2023-06-14T05:52:48;3.65;;;2.72;;
69414;SDS011;56608;43.530;-5.652;2023-06-14T05:53:49;3.00;;;2.60;;
69414;SDS011;56608;43.530;-5.652;2023-06-14T05:54:51;3.42;;;2.83;;
69414;SDS011;56608;43.530;-5.652;2023-06-14T05:55:52;3.00;;;2.60;;
69414;SDS011;56608;43.530;-5.652;2023-06-14T05:56:55;3.00;;;2.70;;
69414;SDS011;56608;43.530;-5.652;2023-06-14T05:58:02;3.28;;;2.97;;
69414;SDS011;56608;43.530;-5.652;2023-06-14T06:00:05;4.00;;;2.90;;
69414;SDS011;56608;43.530;-5.652;2023-06-14T06:01:15;2.83;;;2.60;;
69414;SDS011;56608;43.530;-5.652;2023-06-14T06:02:16;3.08;;;2.78;;
69414;SDS011;56608;43.530;-5.652;2023-06-14T06:03:18;2.60;;;2.40;;
69414;SDS011;56608;43.530;-5.652;2023-06-14T06:04:19;3.10;;;2.80;;
69414;SDS011;56608;43.530;-5.652;2023-06-14T06:06:21;3.17;;;2.70;;
69414;SDS011;56608;43.530;-5.652;2023-06-14T06:07:23;2.67;;;2.47;;
69414;SDS011;56608;43.530;-5.652;2023-06-14T06:08:26;3.20;;;2.90;;
69414;SDS011;56608;43.530;-5.652;2023-06-14T06:09:27;2.75;;;2.55;;
69414;SDS011;56608;43.530;-5.652;2023-06-14T06:10:29;2.97;;;2.67;;
69414;SDS011;56608;43.530;-5.652;2023-06-14T06:11:30;3.10;;;2.80;;
69414;SDS011;56608;43.530;-5.652;2023-06-14T06:12:32;3.00;;;2.60;;
69414;SDS011;56608;43.530;-5.652;2023-06-14T06:13:33;3.10;;;2.80;;
69414;SDS011;56608;43.530;-5.652;2023-06-14T06:14:36;3.15;;;2.75;;
69414;SDS011;56608;43.530;-5.652;2023-06-14T06:15:37;2.85;;;2.40;;
69414;SDS011;56608;43.530;-5.652;2023-06-14T06:16:38;2.92;;;2.62;;
69414;SDS011;56608;43.530;-5.652;2023-06-14T06:17:40;4.40;;;2.60;;
69414;SDS011;56608;43.530;-5.652;2023-06-14T06:18:41;3.00;;;2.42;;
69414;SDS011;56608;43.530;-5.652;2023-06-14T06:19:43;2.70;;;2.50;;
69414;SDS011;56608;43.530;-5.652;2023-06-14T06:20:44;4.15;;;2.55;;
69414;SDS011;56608;43.530;-5.652;2023-06-14T06:21:46;2.55;;;2.33;;
69414;SDS011;56608;43.530;-5.652;2023-06-14T06:22:47;3.12;;;2.70;;
69414;SDS011;56608;43.530;-5.652;2023-06-14T06:23:48;3.50;;;2.60;;
69414;SDS011;56608;43.530;-5.652;2023-06-14T06:24:50;3.20;;;2.90;;
69414;SDS011;56608;43.530;-5.652;2023-06-14T06:25:51;3.22;;;2.90;;
69414;SDS011;56608;43.530;-5.652;2023-06-14T06:26:53;2.70;;;2.50;;
69414;SDS011;56608;43.530;-5.652;2023-06-14T06:27:54;3.75;;;2.75;;
69414;SDS011;56608;43.530;-5.652;2023-06-14T06:28:58;2.65;;;2.42;;
69414;SDS011;56608;43.530;-5.652;2023-06-14T06:29:59;3.10;;;2.80;;
69414;SDS011;56608;43.530;-5.652;2023-06-14T06:31:01;3.12;;;2.50;;
69414;SDS011;56608;43.530;-5.652;2023-06-14T06:32:01;3.35;;;2.65;;
69414;SDS011;56608;43.530;-5.652;2023-06-14T06:33:03;4.10;;;2.75;;